createdAt,value
2022-12-12T00:04:03.250Z,35
2022-12-12T00:32:43.558Z,33
2022-12-12T01:02:00.582Z,35
2022-12-12T01:31:06.989Z,35
2022-12-12T02:00:17.482Z,31
2022-12-12T02:29:31.742Z,34
2022-12-12T02:58:51.054Z,27
2022-12-12T03:28:00.599Z,28
2022-12-12T03:57:06.648Z,33
2022-12-12T04:26:17.836Z,33
2022-12-12T04:55:15.066Z,33
2022-12-12T05:23:56.932Z,33
2022-12-12T05:52:58.137Z,34
2022-12-12T06:21:58.032Z,34
2022-12-12T06:51:04.709Z,31
2022-12-12T07:19:59.720Z,31
2022-12-12T07:48:46.168Z,33
2022-12-12T08:17:48.616Z,31
2022-12-12T08:46:54.244Z,33
2022-12-12T09:16:07.487Z,30
2022-12-12T09:45:16.766Z,30
2022-12-12T10:14:34.358Z,31
2022-12-12T10:43:55.941Z,33
2022-12-12T11:13:20.006Z,30
2022-12-12T11:42:34.553Z,30
2022-12-12T12:11:58.364Z,31
2022-12-12T12:41:17.077Z,34
2022-12-12T13:10:41.482Z,34
2022-12-12T13:40:06.376Z,33
2022-12-12T14:09:46.516Z,32
2022-12-12T14:38:07.552Z,31
2022-12-12T15:07:06.917Z,37
2022-12-12T15:36:16.670Z,42
2022-12-12T16:05:16.444Z,42
2022-12-12T16:34:32.911Z,44
2022-12-12T17:03:46.105Z,47
2022-12-12T18:02:33.803Z,65
2022-12-12T18:31:47.485Z,57
2022-12-12T19:00:54.839Z,47
2022-12-12T19:29:57.562Z,52
2022-12-12T19:59:05.472Z,47
2022-12-12T20:28:20.192Z,47
2022-12-12T20:57:33.398Z,55
2022-12-12T21:26:37.415Z,49
2022-12-12T21:56:01.323Z,54
2022-12-12T22:25:22.742Z,52
2022-12-12T22:54:45.941Z,55
2022-12-12T23:24:06.400Z,52
2022-12-12T23:53:27.734Z,50
